CMA CGM La Boussole — A8FZ6 — position and weather

sailwx.info

Track history (hours):
 
Tides and Currents Weather Stations Pressure Air Temp Water Temp Dewpoint Dewpoint Depression Visibility Wind Speed Wind Dir Waves Ship Positions

CMA CGM La Boussole

Last reported at 2016-Jun-28 16:33 UTC. Time now 2016-Jun-28 17:02 UTC.
Position N 09°21' W 079°53'.

Length 210.1 m; beam 30.2 m; draft 11.5 m.

Type: Ship (hazmat cat A). MMSI: 636017045.

Date/timePositionNaut miles runAvg speedWind from/ knotsBaromVisibWave heightAir tempDewpointWater temp
2016-Jun-28 16:33N 09°21' W 079°53'0 0.0
2016-Jun-28 15:33N 09°21' W 079°53'0 0.0
2016-Jun-28 14:33N 09°21' W 079°53'0 0.0
2016-Jun-28 13:33N 09°21' W 079°53'0 0.0
2016-Jun-28 12:33N 09°21' W 079°53'4 3.7
2016-Jun-28 11:33N 09°25' W 079°54'3 3.0
2016-Jun-28 10:31N 09°27' W 079°52'0 0.0
2016-Jun-28 09:30N 09°27' W 079°52'0 0.0
2016-Jun-28 08:24N 09°27' W 079°52'0 0.0
2016-Jun-28 07:33N 09°27' W 079°52'0 0.2
2016-Jun-28 06:25N 09°27' W 079°51'0 0.0
2016-Jun-28 04:33N 09°27' W 079°51'0 0.0
2016-Jun-28 03:33N 09°27' W 079°51'0 0.0
2016-Jun-28 02:25N 09°27' W 079°51'0 0.0
2016-Jun-28 01:33N 09°27' W 079°51'0 0.0
2016-Jun-28 00:21N 09°27' W 079°51'0 0.0
2016-Jun-27 23:21N 09°27' W 079°51'0 0.1
2016-Jun-27 22:27N 09°27' W 079°51'0 0.1
2016-Jun-27 21:31N 09°27' W 079°51'0 0.0
2016-Jun-27 20:25N 09°27' W 079°51'0 0.0
2016-Jun-27 19:28N 09°27' W 079°51'0 0.0
2016-Jun-27 18:33N 09°27' W 079°51'0 0.0
2016-Jun-27 17:31N 09°27' W 079°51'0 0.1
2016-Jun-27 16:33N 09°27' W 079°51'0 0.0
2016-Jun-27 15:28N 09°27' W 079°51'0 0.0
2016-Jun-27 14:27N 09°27' W 079°51'0 0.0
2016-Jun-27 13:31N 09°27' W 079°51'0 0.0
2016-Jun-27 12:33N 09°27' W 079°51'0 0.1
2016-Jun-27 11:33N 09°27' W 079°51'7 7.2
2016-Jun-27 10:33N 09°34' W 079°52'1212.4
2016-Jun-27 09:33N 09°45' W 079°45'1413.5
2016-Jun-27 08:33N 09°47' W 079°31'1414.0
2016-Jun-27 07:33N 09°49' W 079°17'1614.3
2016-Jun-27 06:26N 09°51' W 079°01'  
2016-Jun-23 01:16N 16°06' W 061°31'7 9.8
2016-Jun-23 00:34N 16°13' W 061°32'1 1.4
2016-Jun-22 23:32N 16°14' W 061°33'0 0.0
2016-Jun-22 22:26N 16°14' W 061°33'0 0.0
2016-Jun-22 21:32N 16°14' W 061°33'0 0.0
2016-Jun-22 20:32N 16°14' W 061°33'0 0.0
2016-Jun-22 19:32N 16°14' W 061°33'0 0.0
2016-Jun-22 18:14N 16°14' W 061°33'0 0.0
2016-Jun-22 17:32N 16°14' W 061°33'0 0.0
2016-Jun-22 16:32N 16°14' W 061°33'  
Track history (hours):
 
Tides and Currents Weather Stations Pressure Air Temp Water Temp Dewpoint Dewpoint Depression Visibility Wind Speed Wind Dir Waves Ship Positions

CMA CGM La Boussole

Last reported at 2016-Jun-28 16:33 UTC. Time now 2016-Jun-28 17:02 UTC.
Position N 09°21' W 079°53'.

Length 210.1 m; beam 30.2 m; draft 11.5 m.

Type: Ship (hazmat cat A). MMSI: 636017045.

Date/timePositionNaut miles runAvg speedWind from/ knotsBaromVisibWave heightAir tempDewpointWater temp
2016-Jun-28 16:33N 09°21' W 079°53'0 0.0
2016-Jun-28 15:33N 09°21' W 079°53'0 0.0
2016-Jun-28 14:33N 09°21' W 079°53'0 0.0
2016-Jun-28 13:33N 09°21' W 079°53'0 0.0
2016-Jun-28 12:33N 09°21' W 079°53'4 3.7
2016-Jun-28 11:33N 09°25' W 079°54'3 3.0
2016-Jun-28 10:31N 09°27' W 079°52'0 0.0
2016-Jun-28 09:30N 09°27' W 079°52'0 0.0
2016-Jun-28 08:24N 09°27' W 079°52'0 0.0
2016-Jun-28 07:33N 09°27' W 079°52'0 0.2
2016-Jun-28 06:25N 09°27' W 079°51'0 0.0
2016-Jun-28 04:33N 09°27' W 079°51'0 0.0
2016-Jun-28 03:33N 09°27' W 079°51'0 0.0
2016-Jun-28 02:25N 09°27' W 079°51'0 0.0
2016-Jun-28 01:33N 09°27' W 079°51'0 0.0
2016-Jun-28 00:21N 09°27' W 079°51'0 0.0
2016-Jun-27 23:21N 09°27' W 079°51'0 0.1
2016-Jun-27 22:27N 09°27' W 079°51'0 0.1
2016-Jun-27 21:31N 09°27' W 079°51'0 0.0
2016-Jun-27 20:25N 09°27' W 079°51'0 0.0
2016-Jun-27 19:28N 09°27' W 079°51'0 0.0
2016-Jun-27 18:33N 09°27' W 079°51'0 0.0
2016-Jun-27 17:31N 09°27' W 079°51'0 0.1
2016-Jun-27 16:33N 09°27' W 079°51'0 0.0
2016-Jun-27 15:28N 09°27' W 079°51'0 0.0
2016-Jun-27 14:27N 09°27' W 079°51'0 0.0
2016-Jun-27 13:31N 09°27' W 079°51'0 0.0
2016-Jun-27 12:33N 09°27' W 079°51'0 0.1
2016-Jun-27 11:33N 09°27' W 079°51'7 7.2
2016-Jun-27 10:33N 09°34' W 079°52'1212.4
2016-Jun-27 09:33N 09°45' W 079°45'1413.5
2016-Jun-27 08:33N 09°47' W 079°31'1414.0
2016-Jun-27 07:33N 09°49' W 079°17'1614.3
2016-Jun-27 06:26N 09°51' W 079°01'  
2016-Jun-23 01:16N 16°06' W 061°31'7 9.8
2016-Jun-23 00:34N 16°13' W 061°32'1 1.4
2016-Jun-22 23:32N 16°14' W 061°33'0 0.0
2016-Jun-22 22:26N 16°14' W 061°33'0 0.0
2016-Jun-22 21:32N 16°14' W 061°33'0 0.0
2016-Jun-22 20:32N 16°14' W 061°33'0 0.0
2016-Jun-22 19:32N 16°14' W 061°33'0 0.0
2016-Jun-22 18:14N 16°14' W 061°33'0 0.0
2016-Jun-22 17:32N 16°14' W 061°33'0 0.0
2016-Jun-22 16:32N 16°14' W 061°33'  

Dump ship's entire track history